Latest Weather Observations for Low Isles

IDQ60801

Issued at 7:05 am EST Friday 18 April 2014 (issued every 30 minutes, with the page automatically refreshed every 10 minutes)

About weather observations | Map of weather stations | Latest weather observations for QLD | Other Formats
Station Details ID: 031037 Name: LOW ISLES LIGHTHOUSE Lat: -16.38 Lon: 145.56 Height: 2.9 m
Data from the previous 72 hours. | See also: Recent months at Low Isles
Date/Time
EST
Temp
°C
App
Temp
°C
Dew
Point
Rel
Hum
%
Delta-T
°C
Wind Press
QNH
hPa
Press
MSL
hPa
Rain
since 9 am
mm
Dir
 
Spd
km/h
Gust
km/h
Spd
kts
Gust
kts
18/07:00am 26.1 25.3 23.0 83 2.1 SE 32 37 17 20 1013.6 - 4.6
18/06:30am 25.5 25.1 23.0 86 1.7 SE 30 37 16 20 1013.3 - 4.6
18/06:00am 25.1 25.3 22.8 87 1.6 E 26 33 14 18 1013.3 1013.2 4.4
18/05:30am 26.4 26.2 22.7 80 2.5 SE 28 33 15 18 1012.9 - 3.6
18/05:00am 26.4 25.5 22.9 81 2.4 SE 32 37 17 20 1012.5 - 3.6
18/04:30am 26.4 26.0 23.1 82 2.2 SE 30 37 16 20 1012.4 - 3.6
18/04:00am 26.4 26.4 23.1 82 2.2 SE 28 37 15 20 1012.4 - 3.6
18/03:30am 26.5 27.1 23.4 83 2.1 SE 26 35 14 19 1012.3 - 3.6
18/03:00am 26.5 26.6 23.2 82 2.2 SE 28 33 15 18 1012.4 1012.3 3.6
18/02:30am 26.5 27.2 23.0 81 2.4 ESE 24 30 13 16 1012.7 - 3.6
18/02:00am 26.5 27.3 23.2 82 2.2 ESE 24 30 13 16 1013.0 - 3.6
18/01:30am 26.6 27.0 23.1 81 2.4 ESE 26 32 14 17 1013.3 - 3.6
18/01:00am 26.5 27.4 23.4 83 2.1 ESE 24 32 13 17 1013.6 - 3.6
18/12:30am 26.5 27.1 23.4 83 2.1 ESE 26 33 14 18 1014.2 - 3.6
18/12:00am 26.3 27.2 23.4 84 2.0 SE 24 30 13 16 1014.6 1014.5 3.6
 
Date/Time
EST
Temp
°C
App
Temp
°C
Dew
Point
Rel
Hum
%
Delta-T
°C
Wind Press
QNH
hPa
Press
MSL
hPa
Rain
since 9 am
mm
Dir
 
Spd
km/h
Gust
km/h
Spd
kts
Gust
kts
17/11:30pm 26.1 27.5 22.6 81 2.4 E 19 24 10 13 1015.0 - 3.6
17/11:00pm 26.7 27.0 23.6 83 2.1 SE 28 33 15 18 1015.2 - 3.6
17/10:30pm 26.4 25.8 23.3 83 2.1 SSE 32 39 17 21 1015.3 - 3.6
17/10:00pm 26.6 26.5 23.5 83 2.1 SE 30 35 16 19 1015.3 - 3.6
17/09:30pm 27.0 27.1 23.9 83 2.1 SE 30 37 16 20 1015.4 - 3.6
17/09:00pm 26.8 26.2 23.3 81 2.4 SE 32 39 17 21 1015.2 1015.1 3.6
17/08:30pm 26.7 25.9 23.4 82 2.3 SE 33 39 18 21 1015.1 - 3.6
17/08:00pm 26.9 26.0 23.8 83 2.1 SE 35 41 19 22 1014.8 - 3.6
17/07:30pm 26.9 26.2 23.6 82 2.3 SE 33 39 18 21 1014.5 - 3.6
17/07:00pm 26.7 25.9 23.4 82 2.3 SE 33 41 18 22 1014.1 - 3.6
17/06:30pm 27.0 26.3 24.1 84 2.0 SE 35 44 19 24 1013.6 - 3.6
17/06:00pm 27.0 26.2 23.3 80 2.5 SE 33 41 18 22 1013.2 1013.1 3.6
17/05:30pm 27.1 26.0 22.5 76 3.1 SE 32 39 17 21 1013.0 - 3.6
17/05:00pm 27.5 27.0 22.9 76 3.1 ESE 30 37 16 20 1012.5 - 3.6
17/04:30pm 27.6 27.4 23.4 78 2.9 ESE 30 37 16 20 1012.3 - 3.6
17/04:00pm 27.6 27.5 23.6 79 2.7 ESE 30 37 16 20 1012.1 - 3.6
17/03:30pm 27.8 28.0 23.4 77 3.0 ESE 28 33 15 18 1012.0 - 3.6
17/03:00pm 27.8 28.5 23.6 78 2.9 ESE 26 33 14 18 1012.2 1012.1 3.6
17/02:30pm 27.7 28.9 23.9 80 2.6 SE 24 32 13 17 1012.3 - 3.6
17/02:00pm 27.9 29.0 23.7 78 2.9 SE 24 30 13 16 1012.5 - 3.6
17/01:30pm 28.2 29.5 24.0 78 2.9 SE 24 28 13 15 1013.0 - 3.6
17/01:00pm 27.8 29.5 24.0 80 2.6 SE 22 28 12 15 1013.3 - 3.6
17/12:30pm 28.1 29.8 24.1 79 2.8 SE 22 26 12 14 1013.6 - 3.6
17/12:00pm 27.5 29.6 24.1 82 2.3 SE 20 28 11 15 1014.0 1013.9 3.6
17/11:30am 27.1 29.5 24.6 86 1.7 SSE 20 24 11 13 1014.6 - 3.6
17/11:00am 26.6 29.1 24.4 88 1.5 SSE 19 24 10 13 1014.9 - 3.6
17/10:30am 26.0 29.0 24.6 92 1.0 S 17 20 9 11 1015.3 - 3.6
17/10:00am 25.0 26.7 23.4 91 1.1 S 20 28 11 15 1015.3 - 3.4
17/09:30am 24.3 24.7 23.1 93 0.8 SSE 26 33 14 18 1015.2 - 3.2
17/09:18am 23.3 21.5 21.6 90 1.1 SSE 33 39 18 21 1015.4 - 3.2
17/09:10am 23.9 21.1 22.5 92 0.9 ESE 41 48 22 26 1015.2 - 1.4
17/09:00am 23.7 19.8 21.2 86 1.6 E 43 57 23 31 1015.2 1015.1 2.0
17/08:50am 25.6 25.8 23.5 88 1.4 E 28 46 15 25 1015.0 - 1.8
17/08:30am 25.7 24.8 22.2 81 2.3 E 30 37 16 20 1014.8 - 1.2
17/08:00am 26.2 28.1 23.5 85 1.8 ESE 19 26 10 14 1014.4 - 1.2
17/07:30am 26.7 27.8 23.6 83 2.1 ESE 24 30 13 16 1014.2 - 1.2
17/07:00am 26.2 27.5 22.7 81 2.4 E 20 28 11 15 1013.9 - 1.2
17/06:30am 26.8 26.9 23.3 81 2.4 ESE 28 35 15 19 1013.6 - 1.2
17/06:00am 26.7 26.4 23.2 81 2.4 SE 30 35 16 19 1013.0 1012.9 1.2
17/05:30am 26.7 26.4 23.2 81 2.4 SE 30 35 16 19 1012.6 - 1.2
17/05:00am 26.7 26.5 23.4 82 2.3 SE 30 35 16 19 1012.3 - 1.2
17/04:30am 26.6 26.8 23.5 83 2.1 SE 28 32 15 17 1012.0 - 1.2
17/04:00am 26.6 27.5 23.9 85 1.9 SE 26 32 14 17 1012.0 - 1.2
17/03:30am 26.3 27.4 23.6 85 1.8 SSE 24 28 13 15 1012.1 - 1.2
17/03:00am 26.4 27.1 23.7 85 1.9 SSE 26 30 14 16 1012.1 1012.0 1.2
17/02:30am 26.5 26.2 23.8 85 1.9 SSE 32 35 17 19 1012.2 - 1.2
17/02:00am 26.7 26.8 24.0 85 1.9 SSE 30 35 16 19 1012.3 - 1.2
17/01:30am 26.6 27.0 23.7 84 2.0 SSE 28 32 15 17 1012.4 - 1.2
17/01:00am 26.6 26.2 23.7 84 2.0 SSE 32 33 17 18 1012.7 - 1.2
17/12:30am 26.7 27.0 23.6 83 2.1 SSE 28 35 15 19 1013.1 - 1.2
17/12:00am 26.7 27.1 23.8 84 2.0 SSE 28 30 15 16 1013.3 1013.2 1.2
 
Date/Time
EST
Temp
°C
App
Temp
°C
Dew
Point
Rel
Hum
%
Delta-T
°C
Wind Press
QNH
hPa
Press
MSL
hPa
Rain
since 9 am
mm
Dir
 
Spd
km/h
Gust
km/h
Spd
kts
Gust
kts
16/11:30pm 26.8 27.7 23.9 84 2.0 SSE 26 30 14 16 1013.4 - 1.2
16/11:00pm 26.8 27.5 23.7 83 2.1 SSE 26 30 14 16 1013.5 - 1.2
16/10:30pm 26.8 27.2 23.7 83 2.1 SSE 28 32 15 17 1013.6 - 1.2
16/10:00pm 26.6 26.7 23.3 82 2.3 SE 28 33 15 18 1013.6 - 1.2
16/09:30pm 26.6 26.3 23.3 82 2.3 SE 30 35 16 19 1013.5 - 1.2
16/09:00pm 26.8 26.7 23.5 82 2.3 SE 30 35 16 19 1013.4 1013.3 1.2
16/08:30pm 27.1 26.9 24.0 83 2.1 SSE 32 35 17 19 1013.2 - 1.2
16/08:00pm 26.8 26.2 23.7 83 2.1 SE 33 37 18 20 1013.0 - 1.2
16/07:30pm 26.8 26.3 23.5 82 2.3 SE 32 35 17 19 1012.7 - 1.2
16/07:00pm 26.9 26.4 23.6 82 2.3 SE 32 35 17 19 1012.3 - 1.2
16/06:30pm 27.1 27.2 24.0 83 2.1 SE 30 35 16 19 1011.9 - 1.2
16/06:00pm 27.0 27.9 23.3 80 2.5 SE 24 32 13 17 1011.6 1011.5 1.2
16/05:30pm 27.3 28.1 23.1 78 2.9 SE 24 30 13 16 1011.4 - 1.2
16/05:00pm 27.3 28.1 23.1 78 2.9 SE 24 28 13 15 1011.4 - 1.2
16/04:30pm 27.5 28.8 23.3 78 2.9 SE 22 28 12 15 1011.2 - 1.2
16/04:00pm 27.7 28.5 23.1 76 3.1 SE 24 28 13 15 1011.1 - 1.2
16/03:30pm 28.1 28.5 23.2 74 3.3 SE 26 30 14 16 1011.1 - 1.2
16/03:00pm 28.2 29.4 23.8 77 3.0 SE 24 30 13 16 1011.3 1011.2 1.2
16/02:30pm 28.4 28.8 23.8 76 3.2 SE 28 32 15 17 1011.4 - 1.2
16/02:00pm 28.4 28.5 23.3 74 3.5 SE 28 32 15 17 1011.6 - 1.2
16/01:30pm 28.2 28.3 23.3 75 3.4 SE 28 35 15 19 1011.9 - 1.2
16/01:00pm 28.8 28.9 23.9 75 3.4 SE 30 33 16 18 1012.2 - 1.2
16/12:30pm 28.3 28.3 23.7 76 3.2 SE 30 37 16 20 1012.4 - 1.2
16/12:00pm 27.6 27.4 23.4 78 2.9 SE 30 35 16 19 1012.8 1012.7 1.2
16/11:30am 27.4 28.1 24.3 83 2.1 SE 28 35 15 19 1013.3 - 1.2
16/11:00am 26.5 28.9 24.2 87 1.6 SE 19 20 10 11 1013.8 - 1.2
16/10:30am 26.9 28.8 23.8 83 2.1 SSE 20 32 11 17 1014.1 - 0.6
16/10:00am 27.0 28.9 23.7 82 2.3 SSE 20 24 11 13 1014.2 - 0.0
16/09:30am 26.6 28.6 23.9 85 1.9 SSE 20 24 11 13 1014.1 - 0.0
16/09:00am 26.8 28.8 23.9 84 2.0 SSE 20 24 11 13 1014.0 1013.9 1.4
16/08:30am 26.7 28.6 23.8 84 2.0 SSE 20 22 11 12 1013.5 - 1.4
16/08:00am 26.5 27.9 23.6 84 2.0 SSE 22 24 12 13 1013.2 - 1.4
16/07:30am 26.5 27.9 23.6 84 2.0 SSE 22 26 12 14 1013.1 - 1.4
16/07:00am 26.6 27.7 23.7 84 2.0 SSE 24 26 13 14 1012.6 - 1.4
16/06:30am 26.6 28.0 23.5 83 2.1 SE 22 28 12 15 1012.4 - 1.4
16/06:00am 26.3 27.9 23.2 83 2.1 SE 20 26 11 14 1012.0 1011.9 1.4
16/05:30am 26.1 27.8 23.4 85 1.8 SE 20 24 11 13 1011.8 - 1.4
16/05:00am 25.9 27.3 22.8 83 2.1 ESE 20 24 11 13 1011.6 - 1.4
16/04:30am 25.9 27.8 22.8 83 2.1 ESE 17 22 9 12 1011.5 - 1.4
16/04:00am 26.0 28.0 22.9 83 2.1 ESE 17 20 9 11 1011.4 - 1.4
16/03:30am 26.0 27.6 22.9 83 2.1 ESE 19 24 10 13 1011.3 - 1.4
16/03:00am 25.9 27.3 22.8 83 2.1 E 20 24 11 13 1011.6 1011.5 1.4
16/02:30am 25.9 27.6 23.0 84 2.0 E 19 24 10 13 1011.9 - 1.4
16/02:00am 25.9 27.9 23.0 84 2.0 E 17 22 9 12 1011.9 - 1.4
16/01:30am 25.8 27.7 22.7 83 2.1 E 17 22 9 12 1012.3 - 1.4
16/01:00am 26.0 28.1 23.1 84 2.0 E 17 20 9 11 1012.6 - 1.4
16/12:30am 26.3 28.1 23.2 83 2.1 ESE 19 24 10 13 1012.8 - 1.4
16/12:00am 26.4 28.3 23.5 84 2.0 ESE 19 24 10 13 1013.1 1013.0 1.4
 
Date/Time
EST
Temp
°C
App
Temp
°C
Dew
Point
Rel
Hum
%
Delta-T
°C
Wind Press
QNH
hPa
Press
MSL
hPa
Rain
since 9 am
mm
Dir
 
Spd
km/h
Gust
km/h
Spd
kts
Gust
kts
15/11:30pm 26.3 28.2 23.4 84 2.0 ESE 19 22 10 12 1013.4 - 1.4
15/11:00pm 26.3 27.6 23.4 84 2.0 SE 22 24 12 13 1013.3 - 1.4
15/10:30pm 26.4 27.3 23.3 83 2.1 SE 24 28 13 15 1013.4 - 1.4
15/10:00pm 26.3 28.0 23.4 84 2.0 ESE 20 26 11 14 1013.9 - 1.4
15/09:30pm 26.2 28.0 23.5 85 1.8 ESE 20 24 11 13 1013.7 - 1.4
15/09:00pm 25.9 27.6 23.4 86 1.7 ESE 20 24 11 13 1013.6 1013.5 1.4
15/08:30pm 25.7 27.8 23.7 89 1.4 ESE 19 24 10 13 1013.1 - 1.4
15/08:00pm 25.7 27.7 23.9 90 1.2 ESE 20 24 11 13 1012.7 - 1.4
15/07:30pm 25.1 27.0 23.5 91 1.1 ESE 19 22 10 12 1012.5 - 1.4
15/07:00pm 25.3 27.4 23.7 91 1.1 ESE 19 22 10 12 1012.0 - 1.4
15/06:30pm 25.6 27.5 23.8 90 1.2 ESE 20 26 11 14 1011.7 - 1.0
15/06:00pm 25.9 27.7 23.6 87 1.6 ESE 20 24 11 13 1011.6 1011.5 0.2
15/05:30pm 26.4 28.0 23.3 83 2.1 ESE 20 28 11 15 1011.3 - 0.0
15/05:00pm 26.9 27.6 22.9 79 2.7 ESE 24 28 13 15 1010.9 - 0.0
15/04:30pm 27.2 27.8 22.8 77 3.0 ESE 24 32 13 17 1010.6 - 0.0
15/04:00pm 27.8 29.1 23.4 77 3.0 ESE 22 30 12 16 1010.4 - 0.0
15/03:30pm 28.2 28.9 23.6 76 3.2 ESE 26 32 14 17 1010.3 - 0.0
15/03:00pm 27.8 29.2 23.6 78 2.9 SE 22 30 12 16 1010.4 1010.3 0.0
15/02:30pm 27.9 28.9 23.5 77 3.0 SE 24 30 13 16 1010.5 - 0.0
15/02:00pm 27.9 28.9 23.5 77 3.0 SE 24 30 13 16 1010.8 - 0.0
15/01:30pm 28.5 29.8 24.1 77 3.0 SE 24 28 13 15 1011.0 - 0.0
15/01:00pm 27.9 28.9 24.1 80 2.6 SE 26 33 14 18 1011.4 - 0.0
15/12:30pm 28.4 29.3 24.0 77 3.0 SE 26 32 14 17 1011.9 - 0.0
15/12:00pm 28.6 29.1 23.9 75 3.2 SE 28 32 15 17 1012.3 1012.2 0.0
15/11:30am 28.2 28.1 23.6 76 3.2 SE 30 33 16 18 1012.6 - 0.0
15/11:00am 28.1 28.6 23.9 78 2.9 SE 28 32 15 17 1012.9 - 0.0
15/10:30am 27.7 28.6 23.9 80 2.6 SSE 26 30 14 16 1013.3 - 0.0
15/10:00am 27.3 28.0 23.7 81 2.5 SSE 26 30 14 16 1013.3 - 0.0
15/09:30am 27.3 27.8 24.0 82 2.3 SE 28 32 15 17 1013.0 - 0.0
15/09:00am 27.3 27.6 24.2 83 2.1 SE 30 37 16 20 1012.7 1012.6 0.2
15/08:30am 26.9 26.8 23.6 82 2.3 SE 30 35 16 19 1012.5 - 0.2
15/08:00am 26.9 27.3 23.8 83 2.1 ESE 28 33 15 18 1012.1 - 0.2
15/07:30am 26.5 27.7 23.8 85 1.9 ESE 24 30 13 16 1012.0 - 0.2

Other Formats:

Comma delimited format used in spreadsheet applications
http://www.bom.gov.au/fwo/IDQ60801/IDQ60801.94285.axf

JavaScript Object Notation format (JSON) in row-major order
http://www.bom.gov.au/fwo/IDQ60801/IDQ60801.94285.json